Flight Track Log - Related Links

Times and Time Zones

All times are in EDT time to prevent confusion due to time zone crossing. See the VH-ZPO flight status page for this flight to view local times or setup timezone preferences in your user account.

Time Position Orientation Groundspeed Altitude Reporting Facility
EDT Latitude Longitude Course Direction KTS MPH feet Rate Location/Type
Sat 11:16:18 PM -21.1887 149.1936 166° South 139 160 1,200  Level Aus ATC (RADAR)
Sat 11:17:23 PM -21.2391 149.2071 166° South 179 206 3,600 2,200 Climbing Aus ATC (RADAR)
Sat 11:17:48 PM -21.2615 149.2139 164° South 193 222 4,500 1,500 Climbing Aus ATC (RADAR)
Sat 11:18:23 PM -21.2995 149.2258 164° South 233 268 5,100 1,875 Climbing Aus ATC (RADAR)
Sat 11:19:08 PM -21.3542 149.2413 165° South 263 303 7,000 2,810 Climbing Aus ATC (RADAR)
Sat 11:19:42 PM -21.3974 149.2547 164° South 275 316 8,800 3,171 Climbing Aus ATC (RADAR)
Sat 11:20:18 PM -21.4480 149.2630 171° South 301 346 10,700 2,314 Climbing Aus ATC (RADAR)
Sat 11:20:52 PM -21.4982 149.2731 169° South 318 366 11,500 2,174 Climbing Aus ATC (RADAR)
Sat 11:21:27 PM -21.5523 149.2842 169° South 335 386 13,200 2,686 Climbing Aus ATC (RADAR)
Sat 11:22:37 PM -21.6623 149.3094 168° South 352 405 16,200 2,625 Climbing Aus ATC (RADAR)
Sat 11:23:03 PM -21.7029 149.3180 169° South 355 409 17,400 2,500 Climbing Aus ATC (RADAR)
Sat 11:23:37 PM -21.7602 149.3312 168° South 362 417 18,700 2,203 Climbing Aus ATC (RADAR)
Sat 11:24:22 PM -21.8351 149.3505 167° South 371 427 20,300 2,175 Climbing Aus ATC (RADAR)
Sat 11:24:57 PM -21.8959 149.3653 167° South 383 441 21,600 1,971 Climbing Aus ATC (RADAR)
Sat 11:25:32 PM -21.9566 149.3860 162° South 397 457 22,600 1,840 Climbing Aus ATC (RADAR)
Sat 11:26:12 PM -22.0250 149.4193 156° South 409 471 23,900 2,080 Climbing Aus ATC (RADAR)
Sat 11:26:47 PM -22.0858 149.4470 157° South 409 471 25,200 1,768 Climbing Aus ATC (RADAR)
Sat 11:27:47 PM -22.1938 149.4958 157° South 427 491 26,700 1,482 Climbing Aus ATC (RADAR)
Sat 11:28:12 PM -22.2399 149.5169 157° South 431 496 27,300 1,400 Climbing Aus ATC (RADAR)
Sat 11:28:47 PM -22.3051 149.5487 156° South 443 510 28,100 1,520 Climbing Aus ATC (RADAR)
Sat 11:29:27 PM -22.3816 149.5833 157° South 450 518 29,200 1,680 Climbing Aus ATC (RADAR)
Sat 11:30:02 PM -22.4478 149.6154 156° South 448 516 30,200 1,457 Climbing Aus ATC (RADAR)
Sat 11:30:37 PM -22.5157 149.6464 157° South 457 526 30,900 1,130 Climbing Aus ATC (RADAR)
Sat 11:31:11 PM -22.5838 149.6793 156° South 458 527 31,500 1,130 Climbing Aus ATC (RADAR)
Sat 11:31:46 PM -22.6532 149.7124 156° South 467 537 32,200 1,642 Climbing Aus ATC (RADAR)
Sat 11:32:46 PM -22.7715 149.7688 156° South 467 537 34,100 1,906 Climbing Aus ATC (RADAR)
Sat 11:33:11 PM -22.8199 149.7904 158° South 457 526 34,900 1,500 Climbing Aus ATC (RADAR)
Sat 11:33:46 PM -22.8870 149.8213 157° South 455 524 35,600 975 Climbing Aus ATC (RADAR)
Sat 11:34:31 PM -22.9722 149.8616 156° South 450 518 36,200 750 Climbing Aus ATC (RADAR)
Sat 11:35:06 PM -23.0398 149.8933 157° South 455 524 36,600 900 Climbing Aus ATC (RADAR)
Sat 11:35:51 PM -23.1280 149.9333 157° South 459 528 37,400 1,029 Climbing Aus ATC (RADAR)
Sat 11:36:16 PM -23.1765 149.9554 157° South 455 524 37,800 700 Climbing Aus ATC (RADAR)
Sat 11:36:51 PM -23.2452 149.9866 157° South 461 531 38,100 660 Climbing Aus ATC (RADAR)
Sat 11:37:56 PM -23.3707 150.0456 157° South 454 522 38,900 733 Climbing Aus ATC (RADAR)
Sat 11:38:21 PM -23.4195 150.0681 157° South 458 527 39,200 203 Climbing Aus ATC (RADAR)
Sat 11:38:55 PM -23.4887 150.0996 157° South 462 532 39,100 -76 Descending Aus ATC (RADAR)
Sat 11:39:40 PM -23.5794 150.1413 157° South 473 544 39,100  Level Aus ATC (RADAR)
Sat 11:40:15 PM -23.6496 150.1740 157° South 473 544 39,100  Level Aus ATC (RADAR)
Sat 11:40:50 PM -23.7206 150.2067 157° South 475 547 39,100  Level Aus ATC (RADAR)
Sat 11:41:25 PM -23.7908 150.2396 157° South 473 544 39,100  Level Aus ATC (RADAR)
Sat 11:42:00 PM -23.8612 150.2721 157° South 472 543 39,100  Level Aus ATC (RADAR)
Sat 11:42:55 PM -23.9721 150.3238 157° South 476 548 39,100  Level Aus ATC (RADAR)
Sat 11:43:20 PM -24.0223 150.3473 157° South 472 543 39,100  Level Aus ATC (RADAR)
Sat 11:43:55 PM -24.0919 150.3799 157° South 467 537 39,100  Level Aus ATC (RADAR)
Sat 11:44:35 PM -24.1719 150.4174 157° South 469 540 39,100  Level Aus ATC (RADAR)
Sat 11:45:10 PM -24.2420 150.4506 157° South 471 542 39,100  Level Aus ATC (RADAR)
Sat 11:45:45 PM -24.3124 150.4842 157° South 471 542 39,100  Level Aus ATC (RADAR)
Sat 11:46:20 PM -24.3825 150.5171 157° South 469 540 39,100  Level Aus ATC (RADAR)
Sat 11:46:55 PM -24.4525 150.5501 157° South 465 535 39,100  Level Aus ATC (RADAR)
Sat 11:48:10 PM -24.5962 150.6450 149° Southeast 482 555 39,100  Level Aus ATC (RADAR)
Sat 11:48:34 PM -24.6429 150.6788 147° Southeast 481 554 39,100  Level Aus ATC (RADAR)
Sat 11:49:10 PM -24.7078 150.7265 146° Southeast 477 549 39,100  Level Aus ATC (RADAR)
Sat 11:49:49 PM -24.7823 150.7812 146° Southeast 476 548 39,100  Level Aus ATC (RADAR)
Sat 11:50:24 PM -24.8474 150.8289 146° Southeast 480 552 39,100  Level Aus ATC (RADAR)
Sat 11:50:59 PM -24.9125 150.8764 147° Southeast 478 550 39,100  Level Aus ATC (RADAR)
Sat 11:51:34 PM -24.9780 150.9242 147° Southeast 481 554 39,100  Level Aus ATC (RADAR)
Sat 11:52:09 PM -25.0432 150.9720 146° Southeast 481 554 39,100  Level Aus ATC (RADAR)
Sat 11:53:09 PM -25.1548 151.0553 146° Southeast 481 554 39,100  Level Aus ATC (RADAR)
Sat 11:53:34 PM -25.2017 151.0892 147° Southeast 481 554 39,100  Level Aus ATC (RADAR)
Sat 11:54:09 PM -25.2671 151.1371 147° Southeast 481 554 39,100 75 Level Aus ATC (RADAR)
Sat 11:54:54 PM -25.3503 151.1989 146° Southeast 478 550 39,200 75 Climbing Aus ATC (RADAR)
Sat 11:55:29 PM -25.4152 151.2463 147° Southeast 477 549 39,200  Level Aus ATC (RADAR)
Sat 11:55:59 PM -25.4704 151.2877 146° Southeast 475 547 39,200  Level Aus ATC (RADAR)
Sat 11:56:39 PM -25.5445 151.3426 146° Southeast 476 548 39,200  Level Aus ATC (RADAR)
Sat 11:57:14 PM -25.6097 151.3913 146° Southeast 479 551 39,200  Level Aus ATC (RADAR)
Sat 11:58:08 PM -25.7116 151.4673 146° Southeast 479 551 39,200  Level Aus ATC (RADAR)
Sat 11:58:33 PM -25.7565 151.5047 143° Southeast 478 550 39,200  Level Aus ATC (RADAR)
Sat 11:59:09 PM -25.8162 151.5641 138° Southeast 489 563 39,200 -375 Level Aus ATC (RADAR)
Sat 11:59:53 PM -25.8930 151.6405 138° Southeast 489 563 38,700 -1,595 Descending Aus ATC (RADAR)
Sun 12:00:28 AM -25.9521 151.6997 138° Southeast 485 558 37,100 -2,829 Descending Aus ATC (RADAR)
Sun 12:01:03 AM -26.0119 151.7582 139° Southeast 483 556 35,400 -3,086 Descending Aus ATC (RADAR)
Sun 12:01:38 AM -26.0711 151.8182 138° Southeast 488 562 33,500 -3,086 Descending Aus ATC (RADAR)
Sun 12:02:13 AM -26.1305 151.8779 138° Southeast 487 560 31,800 -2,653 Descending Aus ATC (RADAR)
Sun 12:03:13 AM -26.2312 151.9774 138° Southeast 472 543 29,300 -2,188 Descending Aus ATC (RADAR)
Sun 12:03:38 AM -26.2713 152.0184 137° Southeast 465 535 28,700 -2,200 Descending Aus ATC (RADAR)
Sun 12:04:13 AM -26.3260 152.0742 138° Southeast 451 519 27,100 -2,475 Descending Aus ATC (RADAR)
Sun 12:04:58 AM -26.3958 152.1439 138° Southeast 439 505 25,400 -2,250 Descending Aus ATC (RADAR)
Sun 12:05:33 AM -26.4484 152.1963 138° Southeast 428 493 24,100 -2,314 Descending Aus ATC (RADAR)
Sun 12:06:08 AM -26.4992 152.2485 137° Southeast 417 480 22,700 -2,400 Descending Aus ATC (RADAR)
Sun 12:06:43 AM -26.5491 152.3006 137° Southeast 413 475 21,300 -2,435 Descending Aus ATC (RADAR)
Sun 12:07:17 AM -26.5985 152.3497 138° Southeast 401 461 19,900 -2,298 Descending Aus ATC (RADAR)
Sun 12:08:17 AM -26.6797 152.4330 137° Southeast 386 444 17,700 -2,118 Descending Aus ATC (RADAR)
Sun 12:08:42 AM -26.7122 152.4658 138° Southeast 374 430 16,900 -1,938 Descending Aus ATC (RADAR)
Sun 12:09:22 AM -26.7627 152.5171 138° Southeast 360 414 15,600 -1,926 Descending Aus ATC (RADAR)
Sun 12:10:03 AM -26.8116 152.5674 138° Southeast 351 404 14,300 -1,920 Descending Aus ATC (RADAR)
Sun 12:10:37 AM -26.8539 152.6103 138° Southeast 346 398 13,200 -1,826 Descending Aus ATC (RADAR)
Sun 12:11:12 AM -26.8947 152.6526 137° Southeast 336 387 12,200 -1,800 Descending Aus ATC (RADAR)
Sun 12:11:47 AM -26.9277 152.7017 127° Southeast 331 381 11,100 -1,629 Descending Aus ATC (RADAR)
Sun 12:12:22 AM -26.9584 152.7519 125° Southeast 328 377 10,300 -1,257 Descending Aus ATC (RADAR)
Sun 12:13:32 AM -27.0050 152.8472 119° Southeast 290 334 8,900 -1,200 Descending Aus ATC (RADAR)
Sun 12:13:52 AM -27.0171 152.8735 117° Southeast 283 326 8,500 -1,600 Descending Aus ATC (RADAR)
Sun 12:14:32 AM -27.0412 152.9255 117° Southeast 276 318 7,300 -1,725 Descending Aus ATC (RADAR)
Sun 12:15:12 AM -27.0648 152.9782 117° Southeast 274 315 6,200 -1,600 Descending Aus ATC (RADAR)
Sun 12:15:47 AM -27.0858 153.0224 118° Southeast 268 308 5,300 -1,543 Descending Aus ATC (RADAR)
Sun 12:16:22 AM -27.1060 153.0665 117° Southeast 264 304 4,400 -1,200 Descending Aus ATC (RADAR)
Sun 12:16:57 AM -27.1256 153.1096 117° Southeast 259 298 3,900 -857 Descending Aus ATC (RADAR)
Sun 12:17:32 AM -27.1447 153.1512 117° Southeast 253 291 3,400 -568 Descending Aus ATC (RADAR)
Sun 12:18:32 AM -27.1828 153.2092 126° Southeast 227 261 3,000 -282 Descending Aus ATC (RADAR)
Sun 12:18:57 AM -27.2033 153.2220 151° Southeast 207 238 3,000 -102 Level Aus ATC (RADAR)
Sun 12:19:31 AM -27.2328 153.2168 189° South 188 216 2,900 -486 Descending Aus ATC (RADAR)
Sun 12:20:11 AM -27.2634 153.1977 209° Southwest 186 214 2,400 -800 Descending Aus ATC (RADAR)
Sun 12:20:46 AM -27.2890 153.1833 207° Southwest 177 204 1,900 -857 Descending Aus ATC (RADAR)
Sun 12:21:21 AM -27.3121 153.1703 206° Southwest 161 185 1,400 -771 Descending Aus ATC (RADAR)
Sun 12:21:56 AM -27.3324 153.1587 207° Southwest 142 163 1,000 -686 Descending Aus ATC (RADAR)
Sun 12:22:31 AM -27.3511 153.1481 207° Southwest 131 151 600 -686 Descending Aus ATC (RADAR)

Login

Don't have an account? Register now (free) for customized features, flight alerts, and more!